sensor_id;sensor_type;location;lat;lon;timestamp;P1;durP1;ratioP1;P2;durP2;ratioP2
74523;SDS011;63074;44.696;10.358;2023-09-19T00:00:23;9.52;;;2.55;;
74523;SDS011;63074;44.696;10.358;2023-09-19T00:02:56;10.77;;;2.85;;
74523;SDS011;63074;44.696;10.358;2023-09-19T00:05:26;10.18;;;3.80;;
74523;SDS011;63074;44.696;10.358;2023-09-19T00:07:54;7.70;;;2.80;;
74523;SDS011;63074;44.696;10.358;2023-09-19T00:10:23;10.10;;;3.65;;
74523;SDS011;63074;44.696;10.358;2023-09-19T00:12:51;5.95;;;2.88;;
74523;SDS011;63074;44.696;10.358;2023-09-19T00:15:24;9.80;;;3.25;;
74523;SDS011;63074;44.696;10.358;2023-09-19T00:17:53;14.77;;;3.38;;
74523;SDS011;63074;44.696;10.358;2023-09-19T00:20:21;8.65;;;3.40;;
74523;SDS011;63074;44.696;10.358;2023-09-19T00:22:48;10.90;;;3.33;;
74523;SDS011;63074;44.696;10.358;2023-09-19T00:25:17;9.23;;;3.15;;
74523;SDS011;63074;44.696;10.358;2023-09-19T00:27:43;11.23;;;3.20;;
74523;SDS011;63074;44.696;10.358;2023-09-19T00:30:10;10.57;;;2.35;;
74523;SDS011;63074;44.696;10.358;2023-09-19T00:32:47;7.18;;;3.17;;
74523;SDS011;63074;44.696;10.358;2023-09-19T00:35:14;11.40;;;2.67;;
74523;SDS011;63074;44.696;10.358;2023-09-19T00:37:41;10.25;;;2.38;;
74523;SDS011;63074;44.696;10.358;2023-09-19T00:40:08;9.45;;;2.95;;
74523;SDS011;63074;44.696;10.358;2023-09-19T00:42:40;7.93;;;3.00;;
74523;SDS011;63074;44.696;10.358;2023-09-19T00:45:07;11.77;;;4.13;;
74523;SDS011;63074;44.696;10.358;2023-09-19T00:47:41;10.82;;;2.67;;
74523;SDS011;63074;44.696;10.358;2023-09-19T00:50:13;10.43;;;2.65;;
74523;SDS011;63074;44.696;10.358;2023-09-19T00:52:44;10.18;;;3.53;;
74523;SDS011;63074;44.696;10.358;2023-09-19T00:55:13;13.40;;;2.90;;
74523;SDS011;63074;44.696;10.358;2023-09-19T00:57:41;15.52;;;3.08;;
74523;SDS011;63074;44.696;10.358;2023-09-19T01:00:07;9.57;;;3.35;;
74523;SDS011;63074;44.696;10.358;2023-09-19T01:02:41;8.10;;;2.30;;
74523;SDS011;63074;44.696;10.358;2023-09-19T01:05:08;12.50;;;3.13;;
74523;SDS011;63074;44.696;10.358;2023-09-19T01:07:35;10.35;;;2.47;;
74523;SDS011;63074;44.696;10.358;2023-09-19T01:10:05;8.32;;;3.08;;
74523;SDS011;63074;44.696;10.358;2023-09-19T01:12:54;9.90;;;2.60;;
74523;SDS011;63074;44.696;10.358;2023-09-19T01:32:11;10.63;;;3.08;;
74523;SDS011;63074;44.696;10.358;2023-09-19T01:37:18;11.57;;;3.60;;
74523;SDS011;63074;44.696;10.358;2023-09-19T01:40:00;10.55;;;2.95;;
74523;SDS011;63074;44.696;10.358;2023-09-19T01:48:22;14.02;;;3.75;;
74523;SDS011;63074;44.696;10.358;2023-09-19T01:50:59;10.38;;;3.03;;
74523;SDS011;63074;44.696;10.358;2023-09-19T01:56:12;6.88;;;2.72;;
74523;SDS011;63074;44.696;10.358;2023-09-19T01:58:48;8.88;;;2.83;;
74523;SDS011;63074;44.696;10.358;2023-09-19T02:01:20;10.52;;;3.33;;
74523;SDS011;63074;44.696;10.358;2023-09-19T02:03:49;8.10;;;2.92;;
74523;SDS011;63074;44.696;10.358;2023-09-19T02:06:16;7.45;;;2.33;;
74523;SDS011;63074;44.696;10.358;2023-09-19T02:08:44;10.50;;;3.35;;
74523;SDS011;63074;44.696;10.358;2023-09-19T02:11:11;9.95;;;3.08;;
74523;SDS011;63074;44.696;10.358;2023-09-19T02:13:38;10.07;;;3.15;;
74523;SDS011;63074;44.696;10.358;2023-09-19T02:16:05;8.48;;;2.92;;
74523;SDS011;63074;44.696;10.358;2023-09-19T02:18:32;11.32;;;3.63;;
74523;SDS011;63074;44.696;10.358;2023-09-19T02:21:01;10.02;;;3.38;;
74523;SDS011;63074;44.696;10.358;2023-09-19T02:23:29;8.55;;;3.30;;
74523;SDS011;63074;44.696;10.358;2023-09-19T02:25:55;9.30;;;3.03;;
74523;SDS011;63074;44.696;10.358;2023-09-19T02:28:31;10.48;;;3.15;;
74523;SDS011;63074;44.696;10.358;2023-09-19T02:30:57;11.57;;;3.20;;
74523;SDS011;63074;44.696;10.358;2023-09-19T02:33:24;9.35;;;3.45;;
74523;SDS011;63074;44.696;10.358;2023-09-19T02:35:54;12.40;;;3.75;;
74523;SDS011;63074;44.696;10.358;2023-09-19T02:38:22;10.57;;;3.15;;
74523;SDS011;63074;44.696;10.358;2023-09-19T02:40:50;11.68;;;4.03;;
74523;SDS011;63074;44.696;10.358;2023-09-19T02:43:16;15.80;;;3.88;;
74523;SDS011;63074;44.696;10.358;2023-09-19T02:45:44;14.00;;;4.07;;
74523;SDS011;63074;44.696;10.358;2023-09-19T02:48:20;9.93;;;3.50;;
74523;SDS011;63074;44.696;10.358;2023-09-19T02:50:46;19.65;;;4.47;;
74523;SDS011;63074;44.696;10.358;2023-09-19T02:53:16;12.48;;;4.40;;
74523;SDS011;63074;44.696;10.358;2023-09-19T02:55:42;14.50;;;3.22;;
74523;SDS011;63074;44.696;10.358;2023-09-19T02:58:08;14.07;;;3.92;;
74523;SDS011;63074;44.696;10.358;2023-09-19T03:00:36;10.27;;;3.58;;
74523;SDS011;63074;44.696;10.358;2023-09-19T03:03:03;9.73;;;3.70;;
74523;SDS011;63074;44.696;10.358;2023-09-19T03:05:31;9.30;;;3.03;;
74523;SDS011;63074;44.696;10.358;2023-09-19T03:07:58;7.63;;;3.38;;
74523;SDS011;63074;44.696;10.358;2023-09-19T03:10:27;9.05;;;3.05;;
74523;SDS011;63074;44.696;10.358;2023-09-19T03:12:54;8.35;;;2.78;;
74523;SDS011;63074;44.696;10.358;2023-09-19T03:15:20;10.48;;;3.28;;
74523;SDS011;63074;44.696;10.358;2023-09-19T03:17:47;8.73;;;3.08;;
74523;SDS011;63074;44.696;10.358;2023-09-19T03:20:14;9.93;;;3.58;;
74523;SDS011;63074;44.696;10.358;2023-09-19T03:22:44;13.10;;;3.45;;
74523;SDS011;63074;44.696;10.358;2023-09-19T03:25:11;11.43;;;4.40;;
74523;SDS011;63074;44.696;10.358;2023-09-19T03:27:38;7.57;;;4.45;;
74523;SDS011;63074;44.696;10.358;2023-09-19T03:30:05;10.05;;;3.70;;
74523;SDS011;63074;44.696;10.358;2023-09-19T03:32:36;11.40;;;4.82;;
74523;SDS011;63074;44.696;10.358;2023-09-19T03:35:08;13.55;;;4.32;;
74523;SDS011;63074;44.696;10.358;2023-09-19T03:37:34;11.15;;;4.25;;
74523;SDS011;63074;44.696;10.358;2023-09-19T03:40:00;8.32;;;3.60;;
74523;SDS011;63074;44.696;10.358;2023-09-19T03:42:30;11.55;;;4.18;;
74523;SDS011;63074;44.696;10.358;2023-09-19T03:44:56;9.88;;;3.95;;
74523;SDS011;63074;44.696;10.358;2023-09-19T03:47:22;12.98;;;4.43;;
74523;SDS011;63074;44.696;10.358;2023-09-19T03:49:49;10.35;;;4.03;;
74523;SDS011;63074;44.696;10.358;2023-09-19T03:52:15;9.52;;;4.68;;
74523;SDS011;63074;44.696;10.358;2023-09-19T03:54:42;10.57;;;3.60;;
74523;SDS011;63074;44.696;10.358;2023-09-19T03:57:08;10.70;;;3.60;;
74523;SDS011;63074;44.696;10.358;2023-09-19T03:59:34;8.00;;;3.75;;
74523;SDS011;63074;44.696;10.358;2023-09-19T04:02:01;13.73;;;3.53;;
74523;SDS011;63074;44.696;10.358;2023-09-19T04:04:27;8.57;;;3.15;;
74523;SDS011;63074;44.696;10.358;2023-09-19T04:06:54;7.57;;;3.33;;
74523;SDS011;63074;44.696;10.358;2023-09-19T04:09:20;8.85;;;4.45;;
74523;SDS011;63074;44.696;10.358;2023-09-19T04:11:47;7.97;;;3.97;;
74523;SDS011;63074;44.696;10.358;2023-09-19T04:14:15;10.82;;;4.22;;
74523;SDS011;63074;44.696;10.358;2023-09-19T04:16:41;10.13;;;3.63;;
74523;SDS011;63074;44.696;10.358;2023-09-19T04:19:07;9.70;;;3.60;;
74523;SDS011;63074;44.696;10.358;2023-09-19T04:21:33;9.80;;;3.97;;
74523;SDS011;63074;44.696;10.358;2023-09-19T04:23:59;10.80;;;2.65;;
74523;SDS011;63074;44.696;10.358;2023-09-19T04:26:25;6.57;;;2.35;;
74523;SDS011;63074;44.696;10.358;2023-09-19T04:28:52;9.00;;;2.88;;
74523;SDS011;63074;44.696;10.358;2023-09-19T04:31:18;9.85;;;3.72;;
74523;SDS011;63074;44.696;10.358;2023-09-19T04:33:45;9.27;;;3.30;;
74523;SDS011;63074;44.696;10.358;2023-09-19T04:36:11;7.82;;;2.38;;
74523;SDS011;63074;44.696;10.358;2023-09-19T04:38:38;9.40;;;2.60;;
74523;SDS011;63074;44.696;10.358;2023-09-19T04:41:05;6.93;;;2.33;;
74523;SDS011;63074;44.696;10.358;2023-09-19T04:43:31;8.60;;;2.60;;
74523;SDS011;63074;44.696;10.358;2023-09-19T04:45:57;7.97;;;3.10;;
74523;SDS011;63074;44.696;10.358;2023-09-19T04:48:25;12.48;;;3.20;;
74523;SDS011;63074;44.696;10.358;2023-09-19T04:50:51;7.13;;;2.03;;
74523;SDS011;63074;44.696;10.358;2023-09-19T04:53:18;7.13;;;2.95;;
74523;SDS011;63074;44.696;10.358;2023-09-19T04:55:49;7.38;;;2.97;;
74523;SDS011;63074;44.696;10.358;2023-09-19T04:58:18;8.63;;;3.78;;
74523;SDS011;63074;44.696;10.358;2023-09-19T05:00:45;8.90;;;3.75;;
74523;SDS011;63074;44.696;10.358;2023-09-19T05:03:11;7.78;;;4.07;;
74523;SDS011;63074;44.696;10.358;2023-09-19T05:05:37;11.02;;;4.47;;
74523;SDS011;63074;44.696;10.358;2023-09-19T05:08:06;13.10;;;4.93;;
74523;SDS011;63074;44.696;10.358;2023-09-19T05:10:34;12.48;;;5.22;;
74523;SDS011;63074;44.696;10.358;2023-09-19T05:13:03;11.77;;;5.75;;
74523;SDS011;63074;44.696;10.358;2023-09-19T05:15:30;16.95;;;6.30;;
74523;SDS011;63074;44.696;10.358;2023-09-19T05:17:56;15.98;;;5.43;;
74523;SDS011;63074;44.696;10.358;2023-09-19T05:20:22;13.50;;;6.57;;
74523;SDS011;63074;44.696;10.358;2023-09-19T05:23:02;13.55;;;5.75;;
74523;SDS011;63074;44.696;10.358;2023-09-19T05:25:33;12.48;;;5.50;;
74523;SDS011;63074;44.696;10.358;2023-09-19T05:28:02;16.65;;;7.03;;
74523;SDS011;63074;44.696;10.358;2023-09-19T05:30:31;14.20;;;5.80;;
74523;SDS011;63074;44.696;10.358;2023-09-19T05:32:58;14.05;;;5.32;;
74523;SDS011;63074;44.696;10.358;2023-09-19T05:35:24;15.18;;;6.22;;
74523;SDS011;63074;44.696;10.358;2023-09-19T05:40:21;15.45;;;6.40;;
74523;SDS011;63074;44.696;10.358;2023-09-19T05:42:48;15.10;;;5.97;;
74523;SDS011;63074;44.696;10.358;2023-09-19T05:45:15;15.73;;;5.53;;
74523;SDS011;63074;44.696;10.358;2023-09-19T05:47:49;16.08;;;6.10;;
74523;SDS011;63074;44.696;10.358;2023-09-19T05:50:16;11.85;;;5.82;;
74523;SDS011;63074;44.696;10.358;2023-09-19T05:52:43;15.38;;;7.30;;
74523;SDS011;63074;44.696;10.358;2023-09-19T05:55:17;11.48;;;6.72;;
74523;SDS011;63074;44.696;10.358;2023-09-19T05:57:46;13.57;;;6.13;;
74523;SDS011;63074;44.696;10.358;2023-09-19T06:00:16;14.48;;;5.75;;
74523;SDS011;63074;44.696;10.358;2023-09-19T06:02:56;12.02;;;6.53;;
74523;SDS011;63074;44.696;10.358;2023-09-19T06:05:24;11.73;;;5.53;;
74523;SDS011;63074;44.696;10.358;2023-09-19T06:07:56;12.27;;;5.93;;
74523;SDS011;63074;44.696;10.358;2023-09-19T06:10:26;14.20;;;6.10;;
74523;SDS011;63074;44.696;10.358;2023-09-19T06:12:53;13.98;;;6.53;;
74523;SDS011;63074;44.696;10.358;2023-09-19T06:15:23;12.18;;;5.97;;
74523;SDS011;63074;44.696;10.358;2023-09-19T06:17:50;14.95;;;5.82;;
74523;SDS011;63074;44.696;10.358;2023-09-19T06:20:21;15.02;;;6.32;;
74523;SDS011;63074;44.696;10.358;2023-09-19T06:22:49;16.08;;;6.55;;
74523;SDS011;63074;44.696;10.358;2023-09-19T06:25:16;14.32;;;6.78;;
74523;SDS011;63074;44.696;10.358;2023-09-19T06:30:12;13.93;;;7.28;;
74523;SDS011;63074;44.696;10.358;2023-09-19T06:32:39;15.93;;;7.10;;
74523;SDS011;63074;44.696;10.358;2023-09-19T06:35:10;15.50;;;8.88;;
74523;SDS011;63074;44.696;10.358;2023-09-19T06:37:37;17.25;;;8.63;;
74523;SDS011;63074;44.696;10.358;2023-09-19T06:40:13;20.23;;;8.38;;
74523;SDS011;63074;44.696;10.358;2023-09-19T06:42:43;18.17;;;7.63;;
74523;SDS011;63074;44.696;10.358;2023-09-19T06:45:12;17.30;;;7.85;;
74523;SDS011;63074;44.696;10.358;2023-09-19T06:47:43;15.85;;;7.22;;
74523;SDS011;63074;44.696;10.358;2023-09-19T06:50:19;16.30;;;7.60;;
74523;SDS011;63074;44.696;10.358;2023-09-19T06:52:48;19.45;;;8.00;;
74523;SDS011;63074;44.696;10.358;2023-09-19T07:00:11;19.42;;;8.85;;
74523;SDS011;63074;44.696;10.358;2023-09-19T07:02:43;18.58;;;7.72;;
74523;SDS011;63074;44.696;10.358;2023-09-19T07:05:10;17.90;;;8.02;;
74523;SDS011;63074;44.696;10.358;2023-09-19T07:07:36;20.08;;;9.00;;
74523;SDS011;63074;44.696;10.358;2023-09-19T07:10:03;21.55;;;9.15;;
74523;SDS011;63074;44.696;10.358;2023-09-19T07:12:36;19.50;;;9.23;;
74523;SDS011;63074;44.696;10.358;2023-09-19T07:15:02;17.73;;;8.13;;
74523;SDS011;63074;44.696;10.358;2023-09-19T07:17:30;18.27;;;8.90;;
74523;SDS011;63074;44.696;10.358;2023-09-19T07:19:58;18.30;;;8.48;;
74523;SDS011;63074;44.696;10.358;2023-09-19T07:22:26;20.05;;;8.65;;
74523;SDS011;63074;44.696;10.358;2023-09-19T07:24:52;17.77;;;9.00;;
74523;SDS011;63074;44.696;10.358;2023-09-19T07:27:18;17.73;;;9.20;;
74523;SDS011;63074;44.696;10.358;2023-09-19T07:29:44;21.42;;;9.32;;
74523;SDS011;63074;44.696;10.358;2023-09-19T07:32:10;20.35;;;9.18;;
74523;SDS011;63074;44.696;10.358;2023-09-19T07:34:38;19.70;;;10.35;;
74523;SDS011;63074;44.696;10.358;2023-09-19T07:37:05;20.63;;;9.18;;
74523;SDS011;63074;44.696;10.358;2023-09-19T07:39:33;20.73;;;10.32;;
74523;SDS011;63074;44.696;10.358;2023-09-19T07:41:59;15.93;;;7.90;;
74523;SDS011;63074;44.696;10.358;2023-09-19T07:44:25;19.95;;;9.50;;
74523;SDS011;63074;44.696;10.358;2023-09-19T07:46:51;20.65;;;9.07;;
74523;SDS011;63074;44.696;10.358;2023-09-19T07:49:18;19.92;;;9.57;;
74523;SDS011;63074;44.696;10.358;2023-09-19T07:51:44;21.42;;;10.25;;
74523;SDS011;63074;44.696;10.358;2023-09-19T07:54:12;20.13;;;9.95;;
74523;SDS011;63074;44.696;10.358;2023-09-19T07:56:39;24.40;;;10.75;;
74523;SDS011;63074;44.696;10.358;2023-09-19T07:59:06;26.50;;;11.23;;
74523;SDS011;63074;44.696;10.358;2023-09-19T08:01:33;20.40;;;10.90;;
74523;SDS011;63074;44.696;10.358;2023-09-19T08:04:00;21.48;;;10.10;;
74523;SDS011;63074;44.696;10.358;2023-09-19T08:06:26;24.23;;;11.63;;
74523;SDS011;63074;44.696;10.358;2023-09-19T08:08:54;23.80;;;11.10;;
74523;SDS011;63074;44.696;10.358;2023-09-19T08:11:21;24.13;;;11.73;;
74523;SDS011;63074;44.696;10.358;2023-09-19T08:13:50;18.33;;;10.02;;
74523;SDS011;63074;44.696;10.358;2023-09-19T08:16:16;25.35;;;11.13;;
74523;SDS011;63074;44.696;10.358;2023-09-19T08:18:47;22.08;;;10.85;;
74523;SDS011;63074;44.696;10.358;2023-09-19T08:21:19;26.10;;;10.10;;
74523;SDS011;63074;44.696;10.358;2023-09-19T08:23:49;18.23;;;8.85;;
74523;SDS011;63074;44.696;10.358;2023-09-19T08:26:15;18.65;;;9.23;;
74523;SDS011;63074;44.696;10.358;2023-09-19T08:28:42;20.83;;;9.88;;
74523;SDS011;63074;44.696;10.358;2023-09-19T08:31:08;22.50;;;11.43;;
74523;SDS011;63074;44.696;10.358;2023-09-19T08:33:35;24.10;;;10.02;;
74523;SDS011;63074;44.696;10.358;2023-09-19T08:36:05;20.98;;;10.68;;
74523;SDS011;63074;44.696;10.358;2023-09-19T08:38:34;16.67;;;8.90;;
74523;SDS011;63074;44.696;10.358;2023-09-19T08:41:05;19.80;;;10.55;;
74523;SDS011;63074;44.696;10.358;2023-09-19T08:43:32;18.15;;;9.40;;
74523;SDS011;63074;44.696;10.358;2023-09-19T08:46:03;17.88;;;8.75;;
74523;SDS011;63074;44.696;10.358;2023-09-19T08:48:44;14.23;;;8.13;;
74523;SDS011;63074;44.696;10.358;2023-09-19T08:52:04;17.38;;;8.82;;
74523;SDS011;63074;44.696;10.358;2023-09-19T08:56:55;18.92;;;7.57;;
74523;SDS011;63074;44.696;10.358;2023-09-19T08:59:27;12.75;;;7.45;;
74523;SDS011;63074;44.696;10.358;2023-09-19T09:01:54;16.83;;;6.60;;
74523;SDS011;63074;44.696;10.358;2023-09-19T09:04:21;17.13;;;6.90;;
74523;SDS011;63074;44.696;10.358;2023-09-19T09:06:49;18.25;;;7.55;;
74523;SDS011;63074;44.696;10.358;2023-09-19T09:09:18;15.02;;;7.60;;
74523;SDS011;63074;44.696;10.358;2023-09-19T09:11:45;21.55;;;9.18;;
74523;SDS011;63074;44.696;10.358;2023-09-19T09:14:13;16.08;;;7.50;;
74523;SDS011;63074;44.696;10.358;2023-09-19T09:16:39;15.52;;;8.65;;
74523;SDS011;63074;44.696;10.358;2023-09-19T09:19:05;13.32;;;7.72;;
74523;SDS011;63074;44.696;10.358;2023-09-19T09:21:32;16.75;;;7.95;;
74523;SDS011;63074;44.696;10.358;2023-09-19T09:26:53;19.83;;;8.73;;
74523;SDS011;63074;44.696;10.358;2023-09-19T09:30:05;21.17;;;9.30;;
74523;SDS011;63074;44.696;10.358;2023-09-19T09:32:25;17.67;;;8.52;;
74523;SDS011;63074;44.696;10.358;2023-09-19T09:34:56;24.38;;;10.70;;
74523;SDS011;63074;44.696;10.358;2023-09-19T09:37:27;17.98;;;8.57;;
74523;SDS011;63074;44.696;10.358;2023-09-19T09:39:56;17.95;;;8.13;;
74523;SDS011;63074;44.696;10.358;2023-09-19T09:42:41;19.90;;;9.75;;
74523;SDS011;63074;44.696;10.358;2023-09-19T09:45:23;19.05;;;8.88;;
74523;SDS011;63074;44.696;10.358;2023-09-19T09:47:59;21.40;;;9.88;;
74523;SDS011;63074;44.696;10.358;2023-09-19T09:50:33;18.70;;;7.88;;
74523;SDS011;63074;44.696;10.358;2023-09-19T09:55:57;16.25;;;9.80;;
74523;SDS011;63074;44.696;10.358;2023-09-19T09:58:35;19.40;;;8.48;;
74523;SDS011;63074;44.696;10.358;2023-09-19T10:01:03;15.60;;;9.63;;
74523;SDS011;63074;44.696;10.358;2023-09-19T10:03:39;18.25;;;9.73;;
74523;SDS011;63074;44.696;10.358;2023-09-19T10:06:12;17.45;;;9.57;;
74523;SDS011;63074;44.696;10.358;2023-09-19T10:11:42;18.23;;;10.13;;
74523;SDS011;63074;44.696;10.358;2023-09-19T10:14:15;20.10;;;10.27;;
74523;SDS011;63074;44.696;10.358;2023-09-19T10:16:48;16.23;;;8.85;;
74523;SDS011;63074;44.696;10.358;2023-09-19T10:19:21;20.50;;;10.15;;
74523;SDS011;63074;44.696;10.358;2023-09-19T10:21:55;17.13;;;9.52;;
74523;SDS011;63074;44.696;10.358;2023-09-19T10:24:22;18.20;;;8.63;;
74523;SDS011;63074;44.696;10.358;2023-09-19T10:26:51;20.58;;;9.65;;
74523;SDS011;63074;44.696;10.358;2023-09-19T10:29:20;18.35;;;9.50;;
74523;SDS011;63074;44.696;10.358;2023-09-19T10:31:49;20.52;;;11.07;;
74523;SDS011;63074;44.696;10.358;2023-09-19T10:34:18;23.95;;;9.65;;
74523;SDS011;63074;44.696;10.358;2023-09-19T10:36:45;17.98;;;9.35;;
74523;SDS011;63074;44.696;10.358;2023-09-19T10:39:13;19.77;;;10.77;;
74523;SDS011;63074;44.696;10.358;2023-09-19T10:41:49;18.45;;;9.48;;
74523;SDS011;63074;44.696;10.358;2023-09-19T10:44:21;19.02;;;9.65;;
74523;SDS011;63074;44.696;10.358;2023-09-19T10:46:50;17.13;;;9.07;;
74523;SDS011;63074;44.696;10.358;2023-09-19T10:49:18;23.30;;;11.02;;
74523;SDS011;63074;44.696;10.358;2023-09-19T10:51:45;23.17;;;10.55;;
74523;SDS011;63074;44.696;10.358;2023-09-19T10:54:15;24.42;;;12.27;;
74523;SDS011;63074;44.696;10.358;2023-09-19T10:56:51;21.27;;;11.70;;
74523;SDS011;63074;44.696;10.358;2023-09-19T10:59:19;23.95;;;11.00;;
74523;SDS011;63074;44.696;10.358;2023-09-19T11:01:50;21.20;;;11.40;;
74523;SDS011;63074;44.696;10.358;2023-09-19T11:04:26;19.20;;;10.23;;
74523;SDS011;63074;44.696;10.358;2023-09-19T11:06:59;21.30;;;11.23;;
74523;SDS011;63074;44.696;10.358;2023-09-19T11:14:57;20.60;;;9.88;;
74523;SDS011;63074;44.696;10.358;2023-09-19T11:17:30;18.10;;;10.73;;
74523;SDS011;63074;44.696;10.358;2023-09-19T11:28:37;20.20;;;9.52;;
74523;SDS011;63074;44.696;10.358;2023-09-19T11:30:50;22.00;;;9.73;;
74523;SDS011;63074;44.696;10.358;2023-09-19T11:46:34;19.92;;;9.98;;
74523;SDS011;63074;44.696;10.358;2023-09-19T11:49:18;17.13;;;9.48;;
74523;SDS011;63074;44.696;10.358;2023-09-19T11:51:51;16.40;;;9.52;;
74523;SDS011;63074;44.696;10.358;2023-09-19T11:54:17;16.02;;;9.85;;
74523;SDS011;63074;44.696;10.358;2023-09-19T11:56:48;15.50;;;8.00;;
74523;SDS011;63074;44.696;10.358;2023-09-19T11:59:24;18.38;;;8.70;;
74523;SDS011;63074;44.696;10.358;2023-09-19T12:01:55;17.73;;;8.93;;
74523;SDS011;63074;44.696;10.358;2023-09-19T12:04:34;17.88;;;8.30;;
74523;SDS011;63074;44.696;10.358;2023-09-19T12:07:07;17.58;;;9.27;;
74523;SDS011;63074;44.696;10.358;2023-09-19T12:09:45;17.42;;;8.10;;
74523;SDS011;63074;44.696;10.358;2023-09-19T12:12:19;13.45;;;7.78;;
74523;SDS011;63074;44.696;10.358;2023-09-19T12:14:50;14.30;;;8.13;;
74523;SDS011;63074;44.696;10.358;2023-09-19T12:17:16;15.90;;;8.25;;
74523;SDS011;63074;44.696;10.358;2023-09-19T12:19:58;15.38;;;7.82;;
74523;SDS011;63074;44.696;10.358;2023-09-19T12:22:25;17.02;;;6.72;;
74523;SDS011;63074;44.696;10.358;2023-09-19T12:25:07;14.45;;;6.68;;
74523;SDS011;63074;44.696;10.358;2023-09-19T12:27:48;12.35;;;6.57;;
74523;SDS011;63074;44.696;10.358;2023-09-19T12:30:18;13.73;;;7.07;;
74523;SDS011;63074;44.696;10.358;2023-09-19T12:32:47;12.90;;;7.00;;
74523;SDS011;63074;44.696;10.358;2023-09-19T12:35:30;14.07;;;6.07;;
74523;SDS011;63074;44.696;10.358;2023-09-19T12:38:00;15.45;;;6.70;;
74523;SDS011;63074;44.696;10.358;2023-09-19T12:40:28;9.43;;;6.45;;
74523;SDS011;63074;44.696;10.358;2023-09-19T12:42:58;13.95;;;6.40;;
74523;SDS011;63074;44.696;10.358;2023-09-19T12:45:28;12.30;;;6.85;;
74523;SDS011;63074;44.696;10.358;2023-09-19T12:53:29;11.40;;;6.97;;
74523;SDS011;63074;44.696;10.358;2023-09-19T12:55:58;13.02;;;6.68;;
74523;SDS011;63074;44.696;10.358;2023-09-19T12:58:25;10.10;;;6.45;;
74523;SDS011;63074;44.696;10.358;2023-09-19T13:00:52;11.85;;;6.20;;
74523;SDS011;63074;44.696;10.358;2023-09-19T13:05:57;11.57;;;6.30;;
74523;SDS011;63074;44.696;10.358;2023-09-19T13:16:29;10.13;;;5.68;;
74523;SDS011;63074;44.696;10.358;2023-09-19T13:18:55;10.75;;;6.03;;
74523;SDS011;63074;44.696;10.358;2023-09-19T13:21:31;11.88;;;5.63;;
74523;SDS011;63074;44.696;10.358;2023-09-19T13:24:21;12.02;;;5.55;;
74523;SDS011;63074;44.696;10.358;2023-09-19T13:26:51;10.07;;;5.07;;
74523;SDS011;63074;44.696;10.358;2023-09-19T13:29:17;9.75;;;5.72;;
74523;SDS011;63074;44.696;10.358;2023-09-19T13:31:47;8.55;;;5.70;;
74523;SDS011;63074;44.696;10.358;2023-09-19T13:34:13;10.90;;;4.68;;
74523;SDS011;63074;44.696;10.358;2023-09-19T13:36:41;9.35;;;5.40;;
74523;SDS011;63074;44.696;10.358;2023-09-19T13:39:08;10.48;;;5.85;;
74523;SDS011;63074;44.696;10.358;2023-09-19T13:41:35;9.85;;;5.70;;
74523;SDS011;63074;44.696;10.358;2023-09-19T13:44:04;8.68;;;4.57;;
74523;SDS011;63074;44.696;10.358;2023-09-19T13:46:31;11.38;;;4.65;;
74523;SDS011;63074;44.696;10.358;2023-09-19T13:49:00;11.20;;;5.53;;
74523;SDS011;63074;44.696;10.358;2023-09-19T13:51:28;9.90;;;5.15;;
74523;SDS011;63074;44.696;10.358;2023-09-19T13:53:58;11.95;;;5.65;;
74523;SDS011;63074;44.696;10.358;2023-09-19T13:56:27;12.63;;;5.82;;
74523;SDS011;63074;44.696;10.358;2023-09-19T13:58:54;11.73;;;5.43;;
74523;SDS011;63074;44.696;10.358;2023-09-19T14:01:20;13.10;;;5.78;;
74523;SDS011;63074;44.696;10.358;2023-09-19T14:03:46;10.02;;;5.30;;
74523;SDS011;63074;44.696;10.358;2023-09-19T14:06:15;8.88;;;4.88;;
74523;SDS011;63074;44.696;10.358;2023-09-19T14:08:42;11.05;;;5.32;;
74523;SDS011;63074;44.696;10.358;2023-09-19T14:11:12;11.82;;;5.75;;
74523;SDS011;63074;44.696;10.358;2023-09-19T14:13:39;8.15;;;5.18;;
74523;SDS011;63074;44.696;10.358;2023-09-19T14:16:06;7.18;;;3.80;;
74523;SDS011;63074;44.696;10.358;2023-09-19T14:18:35;9.48;;;4.93;;
74523;SDS011;63074;44.696;10.358;2023-09-19T14:21:03;10.07;;;5.03;;
74523;SDS011;63074;44.696;10.358;2023-09-19T14:23:38;10.05;;;4.93;;
74523;SDS011;63074;44.696;10.358;2023-09-19T14:26:06;9.55;;;3.92;;
74523;SDS011;63074;44.696;10.358;2023-09-19T14:28:33;3.83;;;0.98;;
74523;SDS011;63074;44.696;10.358;2023-09-19T14:31:06;2.25;;;0.38;;
74523;SDS011;63074;44.696;10.358;2023-09-19T14:33:33;2.05;;;0.80;;
74523;SDS011;63074;44.696;10.358;2023-09-19T14:36:06;2.65;;;0.80;;
74523;SDS011;63074;44.696;10.358;2023-09-19T14:38:34;1.58;;;0.47;;
74523;SDS011;63074;44.696;10.358;2023-09-19T14:41:01;1.67;;;0.45;;
74523;SDS011;63074;44.696;10.358;2023-09-19T14:43:29;2.58;;;0.68;;
74523;SDS011;63074;44.696;10.358;2023-09-19T14:46:02;3.60;;;0.98;;
74523;SDS011;63074;44.696;10.358;2023-09-19T14:48:41;2.35;;;0.55;;
74523;SDS011;63074;44.696;10.358;2023-09-19T14:51:09;2.60;;;0.50;;
74523;SDS011;63074;44.696;10.358;2023-09-19T14:53:36;1.90;;;0.80;;
74523;SDS011;63074;44.696;10.358;2023-09-19T14:56:03;2.20;;;0.50;;
74523;SDS011;63074;44.696;10.358;2023-09-19T14:58:30;1.60;;;0.63;;
74523;SDS011;63074;44.696;10.358;2023-09-19T15:01:06;2.58;;;0.47;;
74523;SDS011;63074;44.696;10.358;2023-09-19T15:03:35;3.35;;;0.57;;
74523;SDS011;63074;44.696;10.358;2023-09-19T15:06:02;2.80;;;0.47;;
74523;SDS011;63074;44.696;10.358;2023-09-19T15:08:34;3.03;;;0.82;;
74523;SDS011;63074;44.696;10.358;2023-09-19T15:11:09;3.70;;;0.63;;
74523;SDS011;63074;44.696;10.358;2023-09-19T15:13:37;1.83;;;0.35;;
74523;SDS011;63074;44.696;10.358;2023-09-19T15:16:04;3.63;;;0.80;;
74523;SDS011;63074;44.696;10.358;2023-09-19T15:18:34;2.00;;;0.57;;
74523;SDS011;63074;44.696;10.358;2023-09-19T15:21:05;3.10;;;0.52;;
74523;SDS011;63074;44.696;10.358;2023-09-19T15:23:34;1.85;;;0.32;;
74523;SDS011;63074;44.696;10.358;2023-09-19T15:26:02;2.80;;;0.50;;
74523;SDS011;63074;44.696;10.358;2023-09-19T15:28:29;0.75;;;0.25;;
74523;SDS011;63074;44.696;10.358;2023-09-19T15:33:31;1.90;;;0.30;;
74523;SDS011;63074;44.696;10.358;2023-09-19T15:36:01;2.70;;;0.47;;
74523;SDS011;63074;44.696;10.358;2023-09-19T15:38:54;2.13;;;0.32;;
74523;SDS011;63074;44.696;10.358;2023-09-19T15:41:25;1.52;;;0.25;;
74523;SDS011;63074;44.696;10.358;2023-09-19T15:43:52;2.35;;;0.20;;
74523;SDS011;63074;44.696;10.358;2023-09-19T15:46:19;1.73;;;0.52;;
74523;SDS011;63074;44.696;10.358;2023-09-19T15:48:46;1.60;;;0.30;;
74523;SDS011;63074;44.696;10.358;2023-09-19T15:51:12;2.75;;;0.47;;
74523;SDS011;63074;44.696;10.358;2023-09-19T15:53:45;1.38;;;0.10;;
74523;SDS011;63074;44.696;10.358;2023-09-19T15:56:14;0.77;;;0.13;;
74523;SDS011;63074;44.696;10.358;2023-09-19T15:58:44;1.95;;;0.22;;
74523;SDS011;63074;44.696;10.358;2023-09-19T16:01:11;3.22;;;0.20;;
74523;SDS011;63074;44.696;10.358;2023-09-19T16:03:38;2.03;;;0.17;;
74523;SDS011;63074;44.696;10.358;2023-09-19T16:06:11;1.13;;;0.30;;
74523;SDS011;63074;44.696;10.358;2023-09-19T16:08:47;1.20;;;0.35;;
74523;SDS011;63074;44.696;10.358;2023-09-19T16:11:15;1.40;;;0.20;;